Aviation Digital Data Service (ADDS)

Output produced by METARs form (0547 UTC 19 September 2014)
found at http://www.aviationweather.gov/adds/metars/
 
KLGA 190230Z 1903/1924 04008KT P6SM SCT090 
     FM190600 03012G18KT P6SM SCT070 
     FM191200 05012G17KT P6SM FEW030 SCT050 
     FM191800 08014KT P6SM FEW035 FEW250 
     FM192100 13013KT P6SM SCT035 SCT250